sensor_id;sensor_type;location;lat;lon;timestamp;pressure;altitude;pressure_sealevel;temperature;humidity
12475;BME280;6302;42.624;23.334;2023-02-28T00:01:33;93716.09;;;7.48;100.00
12475;BME280;6302;42.624;23.334;2023-02-28T00:04:00;93710.09;;;7.51;100.00
12475;BME280;6302;42.624;23.334;2023-02-28T00:06:27;93711.56;;;7.49;100.00
12475;BME280;6302;42.624;23.334;2023-02-28T00:08:55;93717.66;;;7.53;100.00
12475;BME280;6302;42.624;23.334;2023-02-28T00:11:22;93720.66;;;7.51;100.00
12475;BME280;6302;42.624;23.334;2023-02-28T00:13:49;93680.44;;;7.25;100.00
12475;BME280;6302;42.624;23.334;2023-02-28T00:16:18;93726.69;;;7.52;100.00
12475;BME280;6302;42.624;23.334;2023-02-28T00:18:45;93715.81;;;7.57;100.00
12475;BME280;6302;42.624;23.334;2023-02-28T00:21:14;93722.19;;;7.56;100.00
12475;BME280;6302;42.624;23.334;2023-02-28T00:23:41;93732.03;;;7.59;100.00
12475;BME280;6302;42.624;23.334;2023-02-28T00:26:09;93700.97;;;7.42;100.00
12475;BME280;6302;42.624;23.334;2023-02-28T00:28:36;93711.69;;;7.59;100.00
12475;BME280;6302;42.624;23.334;2023-02-28T00:31:03;93718.13;;;7.62;100.00
12475;BME280;6302;42.624;23.334;2023-02-28T00:33:30;93729.06;;;7.64;100.00
12475;BME280;6302;42.624;23.334;2023-02-28T00:36:02;93706.41;;;7.59;100.00
12475;BME280;6302;42.624;23.334;2023-02-28T00:38:30;93711.72;;;7.63;100.00
12475;BME280;6302;42.624;23.334;2023-02-28T00:40:56;93716.97;;;7.59;100.00
12475;BME280;6302;42.624;23.334;2023-02-28T00:43:25;93718.00;;;7.48;100.00
12475;BME280;6302;42.624;23.334;2023-02-28T00:45:52;93724.41;;;7.50;100.00
12475;BME280;6302;42.624;23.334;2023-02-28T00:48:19;93713.88;;;7.50;100.00
12475;BME280;6302;42.624;23.334;2023-02-28T00:50:48;93704.81;;;7.48;100.00
12475;BME280;6302;42.624;23.334;2023-02-28T00:53:15;93714.59;;;7.51;100.00
12475;BME280;6302;42.624;23.334;2023-02-28T00:55:42;93708.47;;;7.40;100.00
12475;BME280;6302;42.624;23.334;2023-02-28T00:58:09;93712.63;;;7.41;100.00
12475;BME280;6302;42.624;23.334;2023-02-28T01:00:37;93711.88;;;7.40;100.00
12475;BME280;6302;42.624;23.334;2023-02-28T01:03:04;93714.44;;;7.33;100.00
12475;BME280;6302;42.624;23.334;2023-02-28T01:05:31;93713.69;;;7.33;100.00
12475;BME280;6302;42.624;23.334;2023-02-28T01:07:58;93713.69;;;7.33;100.00
12475;BME280;6302;42.624;23.334;2023-02-28T01:10:25;93712.06;;;7.25;100.00
12475;BME280;6302;42.624;23.334;2023-02-28T01:12:52;93712.84;;;7.25;100.00
12475;BME280;6302;42.624;23.334;2023-02-28T01:15:19;93718.88;;;7.26;100.00
12475;BME280;6302;42.624;23.334;2023-02-28T01:17:47;93712.47;;;7.27;100.00
12475;BME280;6302;42.624;23.334;2023-02-28T01:20:14;93706.81;;;7.25;100.00
12475;BME280;6302;42.624;23.334;2023-02-28T01:22:40;93709.03;;;7.22;100.00
12475;BME280;6302;42.624;23.334;2023-02-28T01:25:08;93706.41;;;7.22;100.00
12475;BME280;6302;42.624;23.334;2023-02-28T01:27:34;93710.53;;;7.23;100.00
12475;BME280;6302;42.624;23.334;2023-02-28T01:30:02;93707.19;;;7.23;100.00
12475;BME280;6302;42.624;23.334;2023-02-28T01:32:29;93699.94;;;7.16;100.00
12475;BME280;6302;42.624;23.334;2023-02-28T01:34:57;93706.16;;;7.01;100.00
12475;BME280;6302;42.624;23.334;2023-02-28T01:37:24;93709.41;;;6.91;100.00
12475;BME280;6302;42.624;23.334;2023-02-28T01:39:50;93705.75;;;6.99;100.00
12475;BME280;6302;42.624;23.334;2023-02-28T01:42:17;93708.00;;;6.97;100.00
12475;BME280;6302;42.624;23.334;2023-02-28T01:45:03;93715.22;;;7.04;100.00
12475;BME280;6302;42.624;23.334;2023-02-28T01:47:32;93707.69;;;7.02;100.00
12475;BME280;6302;42.624;23.334;2023-02-28T01:50:07;93720.16;;;7.05;100.00
12475;BME280;6302;42.624;23.334;2023-02-28T01:52:34;93717.06;;;7.00;100.00
12475;BME280;6302;42.624;23.334;2023-02-28T01:55:03;93715.50;;;6.95;100.00
12475;BME280;6302;42.624;23.334;2023-02-28T01:57:34;93713.25;;;6.97;100.00
12475;BME280;6302;42.624;23.334;2023-02-28T02:00:07;93711.03;;;6.99;100.00
12475;BME280;6302;42.624;23.334;2023-02-28T02:02:36;93720.84;;;7.02;100.00
12475;BME280;6302;42.624;23.334;2023-02-28T02:05:08;93714.59;;;6.84;100.00
12475;BME280;6302;42.624;23.334;2023-02-28T02:07:36;93715.28;;;6.78;100.00
12475;BME280;6302;42.624;23.334;2023-02-28T02:10:09;93717.53;;;6.79;100.00
12475;BME280;6302;42.624;23.334;2023-02-28T02:13:00;93711.09;;;6.73;100.00
12475;BME280;6302;42.624;23.334;2023-02-28T02:15:34;93704.28;;;6.72;100.00
12475;BME280;6302;42.624;23.334;2023-02-28T02:18:09;93712.59;;;6.74;100.00
12475;BME280;6302;42.624;23.334;2023-02-28T02:24:12;93703.66;;;6.82;100.00
12475;BME280;6302;42.624;23.334;2023-02-28T02:26:58;93702.50;;;6.80;100.00
12475;BME280;6302;42.624;23.334;2023-02-28T02:29:42;93704.88;;;6.88;100.00
12475;BME280;6302;42.624;23.334;2023-02-28T02:32:46;93704.88;;;6.88;100.00
12475;BME280;6302;42.624;23.334;2023-02-28T02:35:21;93701.94;;;6.93;100.00
12475;BME280;6302;42.624;23.334;2023-02-28T02:37:54;93700.81;;;6.94;100.00
12475;BME280;6302;42.624;23.334;2023-02-28T02:40:30;93707.28;;;7.00;100.00
12475;BME280;6302;42.624;23.334;2023-02-28T02:43:01;93705.34;;;6.97;100.00
12475;BME280;6302;42.624;23.334;2023-02-28T02:45:32;93703.44;;;6.94;100.00
12475;BME280;6302;42.624;23.334;2023-02-28T02:48:02;93711.72;;;6.96;100.00
12475;BME280;6302;42.624;23.334;2023-02-28T02:50:33;93706.06;;;6.94;100.00
12475;BME280;6302;42.624;23.334;2023-02-28T02:53:03;93703.44;;;6.94;100.00
12475;BME280;6302;42.624;23.334;2023-02-28T02:55:31;93711.00;;;6.96;100.00
12475;BME280;6302;42.624;23.334;2023-02-28T02:58:03;93698.78;;;6.84;100.00
12475;BME280;6302;42.624;23.334;2023-02-28T03:00:34;93727.53;;;6.96;100.00
12475;BME280;6302;42.624;23.334;2023-02-28T03:03:02;93733.13;;;6.91;100.00
12475;BME280;6302;42.624;23.334;2023-02-28T03:05:34;93732.06;;;6.96;100.00
12475;BME280;6302;42.624;23.334;2023-02-28T03:08:03;93739.91;;;6.92;100.00
12475;BME280;6302;42.624;23.334;2023-02-28T03:10:35;93734.94;;;6.84;100.00
12475;BME280;6302;42.624;23.334;2023-02-28T03:13:12;93750.78;;;6.87;100.00
12475;BME280;6302;42.624;23.334;2023-02-28T03:15:53;93755.28;;;6.87;100.00
12475;BME280;6302;42.624;23.334;2023-02-28T03:18:27;93758.59;;;6.80;100.00
12475;BME280;6302;42.624;23.334;2023-02-28T03:21:02;93742.53;;;6.63;100.00
12475;BME280;6302;42.624;23.334;2023-02-28T03:23:38;93758.09;;;6.71;100.00
12475;BME280;6302;42.624;23.334;2023-02-28T03:26:13;93760.00;;;6.74;100.00
12475;BME280;6302;42.624;23.334;2023-02-28T03:28:51;93759.59;;;6.72;100.00
12475;BME280;6302;42.624;23.334;2023-02-28T03:31:21;93761.59;;;6.79;100.00
12475;BME280;6302;42.624;23.334;2023-02-28T03:33:55;93766.50;;;6.80;100.00
12475;BME280;6302;42.624;23.334;2023-02-28T03:36:28;93769.81;;;6.77;100.00
12475;BME280;6302;42.624;23.334;2023-02-28T03:38:58;93761.13;;;6.73;100.00
12475;BME280;6302;42.624;23.334;2023-02-28T03:41:31;93764.97;;;6.79;100.00
12475;BME280;6302;42.624;23.334;2023-02-28T03:44:03;93768.72;;;6.78;100.00
12475;BME280;6302;42.624;23.334;2023-02-28T03:46:35;93770.53;;;6.74;100.00
12475;BME280;6302;42.624;23.334;2023-02-28T03:49:07;93771.66;;;6.73;100.00
12475;BME280;6302;42.624;23.334;2023-02-28T03:51:38;93766.28;;;6.66;100.00
12475;BME280;6302;42.624;23.334;2023-02-28T03:54:09;93767.97;;;6.78;100.00
12475;BME280;6302;42.624;23.334;2023-02-28T03:56:40;93773.53;;;6.73;100.00
12475;BME280;6302;42.624;23.334;2023-02-28T03:59:13;93773.13;;;6.71;100.00
12475;BME280;6302;42.624;23.334;2023-02-28T04:01:43;93759.88;;;6.64;100.00
12475;BME280;6302;42.624;23.334;2023-02-28T04:04:11;93767.41;;;6.65;100.00
12475;BME280;6302;42.624;23.334;2023-02-28T04:06:40;93770.53;;;6.74;100.00
12475;BME280;6302;42.624;23.334;2023-02-28T04:09:09;93771.66;;;6.73;100.00
12475;BME280;6302;42.624;23.334;2023-02-28T04:11:38;93768.94;;;6.66;100.00
12475;BME280;6302;42.624;23.334;2023-02-28T04:14:07;93768.09;;;6.62;100.00
12475;BME280;6302;42.624;23.334;2023-02-28T04:16:36;93775.72;;;6.44;100.00
12475;BME280;6302;42.624;23.334;2023-02-28T04:19:05;93769.00;;;6.47;100.00
12475;BME280;6302;42.624;23.334;2023-02-28T04:21:34;93767.81;;;6.41;100.00
12475;BME280;6302;42.624;23.334;2023-02-28T04:24:03;93770.78;;;6.39;100.00
12475;BME280;6302;42.624;23.334;2023-02-28T04:26:30;93772.38;;;6.44;100.00
12475;BME280;6302;42.624;23.334;2023-02-28T04:28:57;93764.47;;;6.44;100.00
12475;BME280;6302;42.624;23.334;2023-02-28T04:31:24;93768.97;;;6.43;100.00
12475;BME280;6302;42.624;23.334;2023-02-28T04:33:52;93770.47;;;6.44;100.00
12475;BME280;6302;42.624;23.334;2023-02-28T04:36:19;93765.88;;;6.38;100.00
12475;BME280;6302;42.624;23.334;2023-02-28T04:38:46;93770.03;;;6.39;100.00
12475;BME280;6302;42.624;23.334;2023-02-28T04:41:15;93780.50;;;6.35;100.00
12475;BME280;6302;42.624;23.334;2023-02-28T04:43:42;93782.03;;;6.36;100.00
12475;BME280;6302;42.624;23.334;2023-02-28T04:46:09;93778.84;;;6.27;100.00
12475;BME280;6302;42.624;23.334;2023-02-28T04:48:38;93780.00;;;6.26;100.00
12475;BME280;6302;42.624;23.334;2023-02-28T04:51:06;93784.47;;;6.26;100.00
12475;BME280;6302;42.624;23.334;2023-02-28T04:53:33;93795.13;;;6.33;100.00
12475;BME280;6302;42.624;23.334;2023-02-28T04:56:00;93799.00;;;6.39;100.00
12475;BME280;6302;42.624;23.334;2023-02-28T04:58:29;93804.59;;;6.37;100.00
12475;BME280;6302;42.624;23.334;2023-02-28T05:01:02;93799.28;;;6.34;100.00
12475;BME280;6302;42.624;23.334;2023-02-28T05:03:29;93799.69;;;6.36;100.00
12475;BME280;6302;42.624;23.334;2023-02-28T05:05:56;93800.44;;;6.36;100.00
12475;BME280;6302;42.624;23.334;2023-02-28T05:08:22;93803.53;;;6.42;100.00
12475;BME280;6302;42.624;23.334;2023-02-28T05:10:50;93793.44;;;6.44;100.00
12475;BME280;6302;42.624;23.334;2023-02-28T05:13:17;93797.56;;;6.45;100.00
12475;BME280;6302;42.624;23.334;2023-02-28T05:15:45;93805.13;;;6.46;100.00
12475;BME280;6302;42.624;23.334;2023-02-28T05:18:12;93807.09;;;6.53;100.00
12475;BME280;6302;42.624;23.334;2023-02-28T05:20:38;93812.75;;;6.55;100.00
12475;BME280;6302;42.624;23.334;2023-02-28T05:23:08;93806.00;;;6.54;100.00
12475;BME280;6302;42.624;23.334;2023-02-28T05:25:37;93813.16;;;6.57;100.00
12475;BME280;6302;42.624;23.334;2023-02-28T05:28:04;93813.53;;;6.55;100.00
12475;BME280;6302;42.624;23.334;2023-02-28T05:30:31;93797.63;;;6.48;100.00
12475;BME280;6302;42.624;23.334;2023-02-28T05:33:02;93808.94;;;6.49;100.00
12475;BME280;6302;42.624;23.334;2023-02-28T05:35:29;93821.94;;;6.65;100.00
12475;BME280;6302;42.624;23.334;2023-02-28T05:37:55;93825.47;;;6.49;100.00
12475;BME280;6302;42.624;23.334;2023-02-28T05:40:22;93826.19;;;6.46;100.00
12475;BME280;6302;42.624;23.334;2023-02-28T05:42:52;93830.03;;;6.52;100.00
12475;BME280;6302;42.624;23.334;2023-02-28T05:45:22;93833.13;;;6.58;100.00
12475;BME280;6302;42.624;23.334;2023-02-28T05:47:53;93833.53;;;6.60;100.00
12475;BME280;6302;42.624;23.334;2023-02-28T05:50:21;93836.28;;;6.67;100.00
12475;BME280;6302;42.624;23.334;2023-02-28T05:52:49;93840.44;;;6.68;100.00
12475;BME280;6302;42.624;23.334;2023-02-28T05:55:16;93843.41;;;6.67;100.00
12475;BME280;6302;42.624;23.334;2023-02-28T05:57:43;93828.34;;;6.64;100.00
12475;BME280;6302;42.624;23.334;2023-02-28T06:00:11;93832.94;;;6.70;100.00
12475;BME280;6302;42.624;23.334;2023-02-28T06:02:40;93823.41;;;6.62;100.00
12475;BME280;6302;42.624;23.334;2023-02-28T06:05:12;93839.94;;;6.59;100.00
12475;BME280;6302;42.624;23.334;2023-02-28T06:07:42;93837.69;;;6.61;100.00
12475;BME280;6302;42.624;23.334;2023-02-28T06:10:10;93833.78;;;6.51;100.00
12475;BME280;6302;42.624;23.334;2023-02-28T06:12:37;93840.16;;;6.50;100.00
12475;BME280;6302;42.624;23.334;2023-02-28T06:15:04;93839.00;;;6.48;100.00
12475;BME280;6302;42.624;23.334;2023-02-28T06:17:31;93841.09;;;6.39;100.00
12475;BME280;6302;42.624;23.334;2023-02-28T06:19:58;93836.25;;;6.41;100.00
12475;BME280;6302;42.624;23.334;2023-02-28T06:22:24;93828.34;;;6.41;100.00
12475;BME280;6302;42.624;23.334;2023-02-28T06:24:53;93842.56;;;6.59;100.00
12475;BME280;6302;42.624;23.334;2023-02-28T06:27:20;93835.50;;;6.67;100.00
12475;BME280;6302;42.624;23.334;2023-02-28T06:29:47;93841.66;;;6.74;100.00
12475;BME280;6302;42.624;23.334;2023-02-28T06:32:14;93845.41;;;6.73;100.00
12475;BME280;6302;42.624;23.334;2023-02-28T06:34:41;93833.91;;;6.85;100.00
12475;BME280;6302;42.624;23.334;2023-02-28T06:37:07;93831.75;;;6.90;100.00
12475;BME280;6302;42.624;23.334;2023-02-28T06:39:34;93842.84;;;7.03;100.00
12475;BME280;6302;42.624;23.334;2023-02-28T06:42:03;93856.47;;;7.08;100.00
12475;BME280;6302;42.624;23.334;2023-02-28T06:44:30;93849.66;;;7.07;100.00
12475;BME280;6302;42.624;23.334;2023-02-28T06:47:00;93858.03;;;7.13;100.00
12475;BME280;6302;42.624;23.334;2023-02-28T06:49:28;93854.31;;;7.17;100.00
12475;BME280;6302;42.624;23.334;2023-02-28T06:51:55;93859.63;;;7.21;100.00
12475;BME280;6302;42.624;23.334;2023-02-28T06:54:22;93858.53;;;7.22;100.00
12475;BME280;6302;42.624;23.334;2023-02-28T06:56:49;93866.94;;;7.31;100.00
12475;BME280;6302;42.624;23.334;2023-02-28T06:59:17;93869.13;;;7.26;100.00
12475;BME280;6302;42.624;23.334;2023-02-28T07:01:44;93866.50;;;7.26;100.00
12475;BME280;6302;42.624;23.334;2023-02-28T07:04:11;93865.75;;;7.29;100.00
12475;BME280;6302;42.624;23.334;2023-02-28T07:06:39;93859.00;;;7.28;100.00
12475;BME280;6302;42.624;23.334;2023-02-28T07:09:05;93863.59;;;7.34;100.00
12475;BME280;6302;42.624;23.334;2023-02-28T07:11:32;93870.81;;;7.41;100.00
12475;BME280;6302;42.624;23.334;2023-02-28T07:13:59;93865.66;;;7.48;100.00
12475;BME280;6302;42.624;23.334;2023-02-28T07:16:27;93863.91;;;7.59;100.00
12475;BME280;6302;42.624;23.334;2023-02-28T07:18:54;93859.88;;;7.68;100.00
12475;BME280;6302;42.624;23.334;2023-02-28T07:21:21;93855.34;;;7.69;100.00
12475;BME280;6302;42.624;23.334;2023-02-28T07:23:48;93868.69;;;7.83;100.00
12475;BME280;6302;42.624;23.334;2023-02-28T07:26:17;93865.81;;;7.92;100.00
12475;BME280;6302;42.624;23.334;2023-02-28T07:28:45;93855.38;;;8.02;100.00
12475;BME280;6302;42.624;23.334;2023-02-28T07:31:12;93870.47;;;8.05;100.00
12475;BME280;6302;42.624;23.334;2023-02-28T07:33:42;93867.47;;;8.07;100.00
12475;BME280;6302;42.624;23.334;2023-02-28T07:36:11;93860.72;;;8.09;100.00
12475;BME280;6302;42.624;23.334;2023-02-28T07:38:41;93871.47;;;8.27;100.00
12475;BME280;6302;42.624;23.334;2023-02-28T07:41:09;93856.69;;;8.22;100.00
12475;BME280;6302;42.624;23.334;2023-02-28T07:43:36;93868.47;;;8.28;100.00
12475;BME280;6302;42.624;23.334;2023-02-28T07:46:04;93874.75;;;8.17;100.00
12475;BME280;6302;42.624;23.334;2023-02-28T07:48:31;93869.25;;;8.29;100.00
12475;BME280;6302;42.624;23.334;2023-02-28T07:50:59;93866.91;;;8.24;100.00
12475;BME280;6302;42.624;23.334;2023-02-28T07:53:27;93871.41;;;8.23;100.00
12475;BME280;6302;42.624;23.334;2023-02-28T07:55:55;93869.25;;;8.32;100.00
12475;BME280;6302;42.624;23.334;2023-02-28T07:58:22;93863.97;;;8.32;100.00
12475;BME280;6302;42.624;23.334;2023-02-28T08:00:49;93861.00;;;8.37;100.00
12475;BME280;6302;42.624;23.334;2023-02-28T08:03:17;93859.28;;;8.56;100.00
12475;BME280;6302;42.624;23.334;2023-02-28T08:05:45;93860.88;;;8.64;100.00
12475;BME280;6302;42.624;23.334;2023-02-28T08:08:15;93850.31;;;8.64;100.00
12475;BME280;6302;42.624;23.334;2023-02-28T08:10:42;93855.94;;;8.59;100.00
12475;BME280;6302;42.624;23.334;2023-02-28T08:13:09;93862.59;;;8.45;100.00
12475;BME280;6302;42.624;23.334;2023-02-28T08:15:36;93860.97;;;8.34;100.00
12475;BME280;6302;42.624;23.334;2023-02-28T08:18:03;93861.81;;;8.41;100.00
12475;BME280;6302;42.624;23.334;2023-02-28T08:20:30;93863.03;;;8.51;100.00
12475;BME280;6302;42.624;23.334;2023-02-28T08:22:57;93864.84;;;8.47;100.00
12475;BME280;6302;42.624;23.334;2023-02-28T08:25:25;93869.84;;;8.56;100.00
12475;BME280;6302;42.624;23.334;2023-02-28T08:27:52;93856.59;;;8.48;100.00
12475;BME280;6302;42.624;23.334;2023-02-28T08:30:19;93856.25;;;8.54;100.00
12475;BME280;6302;42.624;23.334;2023-02-28T08:32:46;93862.75;;;8.67;100.00
12475;BME280;6302;42.624;23.334;2023-02-28T08:35:13;93868.06;;;8.67;100.00
12475;BME280;6302;42.624;23.334;2023-02-28T08:37:39;93866.22;;;8.71;100.00
12475;BME280;6302;42.624;23.334;2023-02-28T08:40:07;93870.81;;;8.81;100.00
12475;BME280;6302;42.624;23.334;2023-02-28T08:42:36;93876.56;;;8.90;100.00
12475;BME280;6302;42.624;23.334;2023-02-28T08:45:03;93869.03;;;8.95;100.00
12475;BME280;6302;42.624;23.334;2023-02-28T08:47:30;93864.28;;;9.15;100.00
12475;BME280;6302;42.624;23.334;2023-02-28T08:49:57;93866.16;;;9.14;100.00
12475;BME280;6302;42.624;23.334;2023-02-28T08:52:23;93870.78;;;9.28;100.00
12475;BME280;6302;42.624;23.334;2023-02-28T08:54:50;93873.81;;;9.30;100.00
12475;BME280;6302;42.624;23.334;2023-02-28T08:57:17;93875.34;;;9.38;100.00
12475;BME280;6302;42.624;23.334;2023-02-28T08:59:45;93878.38;;;9.33;100.00
12475;BME280;6302;42.624;23.334;2023-02-28T09:02:12;93870.72;;;9.18;100.00
12475;BME280;6302;42.624;23.334;2023-02-28T09:04:39;93866.19;;;9.18;100.00
12475;BME280;6302;42.624;23.334;2023-02-28T09:07:07;93876.34;;;9.16;100.00
12475;BME280;6302;42.624;23.334;2023-02-28T09:09:34;93880.44;;;9.03;100.00
12475;BME280;6302;42.624;23.334;2023-02-28T09:12:00;93880.00;;;8.97;100.00
12475;BME280;6302;42.624;23.334;2023-02-28T09:14:27;93875.06;;;8.92;100.00
12475;BME280;6302;42.624;23.334;2023-02-28T09:16:59;93875.56;;;9.08;100.00
12475;BME280;6302;42.624;23.334;2023-02-28T09:19:25;93874.13;;;9.18;100.00
12475;BME280;6302;42.624;23.334;2023-02-28T09:21:52;93872.31;;;9.36;100.00
12475;BME280;6302;42.624;23.334;2023-02-28T09:24:19;93864.03;;;9.41;100.00
12475;BME280;6302;42.624;23.334;2023-02-28T09:26:46;93866.00;;;9.58;100.00
12475;BME280;6302;42.624;23.334;2023-02-28T09:29:13;93867.94;;;9.68;100.00
12475;BME280;6302;42.624;23.334;2023-02-28T09:31:42;93866.47;;;9.78;100.00
12475;BME280;6302;42.624;23.334;2023-02-28T09:34:10;93866.47;;;9.78;100.00
12475;BME280;6302;42.624;23.334;2023-02-28T09:36:37;93865.00;;;9.88;100.00
12475;BME280;6302;42.624;23.334;2023-02-28T09:39:04;93866.56;;;9.96;100.00
12475;BME280;6302;42.624;23.334;2023-02-28T09:41:37;93846.88;;;9.90;100.00
12475;BME280;6302;42.624;23.334;2023-02-28T09:44:16;93863.91;;;10.03;100.00
12475;BME280;6302;42.624;23.334;2023-02-28T09:46:48;93857.13;;;10.02;100.00
12475;BME280;6302;42.624;23.334;2023-02-28T09:49:22;93859.84;;;10.19;100.00
12475;BME280;6302;42.624;23.334;2023-02-28T09:51:53;93856.81;;;10.17;100.00
12475;BME280;6302;42.624;23.334;2023-02-28T09:54:23;93855.31;;;10.30;100.00
12475;BME280;6302;42.624;23.334;2023-02-28T09:56:53;93869.75;;;10.43;100.00
12475;BME280;6302;42.624;23.334;2023-02-28T09:59:52;93862.56;;;10.44;100.00
12475;BME280;6302;42.624;23.334;2023-02-28T10:02:46;93853.09;;;10.50;100.00
12475;BME280;6302;42.624;23.334;2023-02-28T10:05:20;93858.75;;;10.59;100.00
12475;BME280;6302;42.624;23.334;2023-02-28T10:07:59;93848.56;;;10.75;100.00
12475;BME280;6302;42.624;23.334;2023-02-28T10:10:31;93847.03;;;10.74;100.00
12475;BME280;6302;42.624;23.334;2023-02-28T10:13:04;93842.13;;;10.90;100.00
12475;BME280;6302;42.624;23.334;2023-02-28T10:15:34;93846.66;;;10.86;100.00
12475;BME280;6302;42.624;23.334;2023-02-28T10:18:04;93853.47;;;10.94;100.00
12475;BME280;6302;42.624;23.334;2023-02-28T10:20:39;93844.78;;;11.01;100.00
12475;BME280;6302;42.624;23.334;2023-02-28T10:26:29;93834.53;;;11.06;100.00
12475;BME280;6302;42.624;23.334;2023-02-28T10:28:56;93829.97;;;11.25;100.00
12475;BME280;6302;42.624;23.334;2023-02-28T10:31:23;93827.31;;;11.25;100.00
12475;BME280;6302;42.624;23.334;2023-02-28T10:33:50;93820.47;;;11.34;100.00
12475;BME280;6302;42.624;23.334;2023-02-28T10:36:20;93826.53;;;11.35;100.00
12475;BME280;6302;42.624;23.334;2023-02-28T10:38:48;93818.13;;;11.54;100.00
12475;BME280;6302;42.624;23.334;2023-02-28T10:41:17;93821.50;;;11.65;100.00
12475;BME280;6302;42.624;23.334;2023-02-28T10:43:53;93807.06;;;11.66;100.00
12475;BME280;6302;42.624;23.334;2023-02-28T10:46:39;93804.03;;;11.78;100.00
12475;BME280;6302;42.624;23.334;2023-02-28T10:49:14;93802.44;;;11.95;100.00
12475;BME280;6302;42.624;23.334;2023-02-28T10:51:43;93794.41;;;12.05;100.00
12475;BME280;6302;42.624;23.334;2023-02-28T10:54:18;93721.75;;;11.71;100.00
12475;BME280;6302;42.624;23.334;2023-02-28T10:56:45;93798.72;;;12.44;100.00
12475;BME280;6302;42.624;23.334;2023-02-28T10:59:32;93793.41;;;12.44;100.00
12475;BME280;6302;42.624;23.334;2023-02-28T11:01:59;93785.69;;;12.60;100.00
12475;BME280;6302;42.624;23.334;2023-02-28T11:04:34;93792.47;;;12.64;100.00
12475;BME280;6302;42.624;23.334;2023-02-28T11:07:06;93775.69;;;12.74;100.00
12475;BME280;6302;42.624;23.334;2023-02-28T11:09:45;93782.88;;;12.77;100.00
12475;BME280;6302;42.624;23.334;2023-02-28T11:12:20;93780.28;;;12.70;100.00
12475;BME280;6302;42.624;23.334;2023-02-28T11:14:50;93773.38;;;12.80;100.00
12475;BME280;6302;42.624;23.334;2023-02-28T11:17:21;93776.63;;;12.98;100.00
12475;BME280;6302;42.624;23.334;2023-02-28T11:19:51;93768.22;;;13.03;100.00
12475;BME280;6302;42.624;23.334;2023-02-28T11:22:22;93778.34;;;12.74;100.00
12475;BME280;6302;42.624;23.334;2023-02-28T11:24:51;93768.88;;;12.73;100.00
12475;BME280;6302;42.624;23.334;2023-02-28T11:27:42;93768.72;;;12.91;100.00
12475;BME280;6302;42.624;23.334;2023-02-28T11:30:27;93771.25;;;13.01;100.00
12475;BME280;6302;42.624;23.334;2023-02-28T11:32:54;93774.03;;;12.91;100.00
12475;BME280;6302;42.624;23.334;2023-02-28T11:35:25;93768.28;;;12.96;100.00
12475;BME280;6302;42.624;23.334;2023-02-28T11:37:53;93758.94;;;12.81;100.00
12475;BME280;6302;42.624;23.334;2023-02-28T11:40:26;93765.88;;;12.68;100.00
12475;BME280;6302;42.624;23.334;2023-02-28T11:43:04;93754.53;;;12.60;100.00
12475;BME280;6302;42.624;23.334;2023-02-28T11:45:43;93766.72;;;12.58;100.00
12475;BME280;6302;42.624;23.334;2023-02-28T11:48:18;93758.38;;;12.56;100.00
12475;BME280;6302;42.624;23.334;2023-02-28T11:50:58;93761.38;;;12.61;100.00
12475;BME280;6302;42.624;23.334;2023-02-28T11:53:51;93753.59;;;12.81;100.00
12475;BME280;6302;42.624;23.334;2023-02-28T11:56:26;93753.28;;;12.75;100.00
12475;BME280;6302;42.624;23.334;2023-02-28T11:59:09;93742.59;;;12.79;100.00
12475;BME280;6302;42.624;23.334;2023-02-28T12:01:52;93746.91;;;12.62;100.00
12475;BME280;6302;42.624;23.334;2023-02-28T12:04:28;93746.75;;;12.35;100.00
12475;BME280;6302;42.624;23.334;2023-02-28T12:07:04;93747.25;;;12.20;100.00
12475;BME280;6302;42.624;23.334;2023-02-28T12:09:54;93682.25;;;11.80;100.00
12475;BME280;6302;42.624;23.334;2023-02-28T12:12:37;93746.47;;;12.23;100.00
12475;BME280;6302;42.624;23.334;2023-02-28T12:15:23;93748.72;;;12.28;100.00
12475;BME280;6302;42.624;23.334;2023-02-28T12:18:07;93746.09;;;12.24;100.00
12475;BME280;6302;42.624;23.334;2023-02-28T12:20:42;93745.69;;;12.26;100.00
12475;BME280;6302;42.624;23.334;2023-02-28T12:23:27;93732.00;;;12.27;100.00
12475;BME280;6302;42.624;23.334;2023-02-28T12:26:13;93733.06;;;12.37;100.00
12475;BME280;6302;42.624;23.334;2023-02-28T12:28:45;93745.75;;;12.19;100.00
12475;BME280;6302;42.624;23.334;2023-02-28T12:31:17;93744.22;;;12.18;100.00
12475;BME280;6302;42.624;23.334;2023-02-28T12:33:48;93741.09;;;12.33;100.00
12475;BME280;6302;42.624;23.334;2023-02-28T12:36:18;93734.31;;;12.25;100.00
12475;BME280;6302;42.624;23.334;2023-02-28T12:38:49;93736.97;;;12.25;100.00
12475;BME280;6302;42.624;23.334;2023-02-28T12:41:22;93738.78;;;12.35;100.00
12475;BME280;6302;42.624;23.334;2023-02-28T12:43:56;93743.69;;;12.40;100.00
12475;BME280;6302;42.624;23.334;2023-02-28T12:46:27;93740.41;;;12.22;100.00
12475;BME280;6302;42.624;23.334;2023-02-28T12:48:58;93735.84;;;12.23;100.00
12475;BME280;6302;42.624;23.334;2023-02-28T12:51:27;93741.19;;;12.19;100.00
12475;BME280;6302;42.624;23.334;2023-02-28T12:54:01;93739.38;;;12.06;100.00
12475;BME280;6302;42.624;23.334;2023-02-28T12:56:42;93735.59;;;12.07;100.00
12475;BME280;6302;42.624;23.334;2023-02-28T12:59:16;93738.25;;;12.03;100.00
12475;BME280;6302;42.624;23.334;2023-02-28T13:02:12;93735.28;;;11.94;100.00
12475;BME280;6302;42.624;23.334;2023-02-28T13:04:55;93734.97;;;11.78;100.00
12475;BME280;6302;42.624;23.334;2023-02-28T13:07:45;93739.16;;;11.79;100.00
12475;BME280;6302;42.624;23.334;2023-02-28T13:10:16;93734.63;;;11.76;100.00
12475;BME280;6302;42.624;23.334;2023-02-28T13:12:49;93736.56;;;11.65;100.00
12475;BME280;6302;42.624;23.334;2023-02-28T13:15:25;93734.34;;;11.46;100.00
12475;BME280;6302;42.624;23.334;2023-02-28T13:17:55;93730.22;;;11.45;100.00
12475;BME280;6302;42.624;23.334;2023-02-28T13:20:25;93727.88;;;11.57;100.00
12475;BME280;6302;42.624;23.334;2023-02-28T13:22:55;93730.19;;;11.48;100.00